createdAt,value
2022-10-10T07:06:52.201Z,22.21
2022-10-10T07:11:27.040Z,13.79
2022-10-10T07:12:48.178Z,12.97
2022-10-10T07:14:09.706Z,16.82
2022-10-10T07:15:31.005Z,15.42
2022-10-10T07:16:52.839Z,13.82
2022-10-10T07:18:14.381Z,17.41
2022-10-10T07:20:47.882Z,20.44
2022-10-10T07:22:09.708Z,16.50
2022-10-10T07:23:31.098Z,17.10
2022-10-10T07:24:52.588Z,18.47
2022-10-10T07:26:14.255Z,18.63
2022-10-10T07:27:35.679Z,21.86
2022-10-10T07:28:57.033Z,22.95
2022-10-10T07:30:18.398Z,21.53
2022-10-10T07:31:39.827Z,26.86
2022-10-10T07:33:01.453Z,23.75
2022-10-10T07:34:23.108Z,27.92
2022-10-10T07:35:44.165Z,31.23
2022-10-10T07:37:05.915Z,28.44
2022-10-10T07:38:27.256Z,28.23
2022-10-10T07:39:48.607Z,33.37
2022-10-10T07:41:12.181Z,36.31
2022-10-10T07:42:33.695Z,40.78
2022-10-10T07:43:55.009Z,39.15
2022-10-10T07:45:17.404Z,44.64
2022-10-10T07:46:38.520Z,54.18
2022-10-10T07:48:00.015Z,45.56
2022-10-10T07:49:21.654Z,45.30
2022-10-10T07:50:45.008Z,57.31
2022-10-10T07:53:27.069Z,66.73
2022-10-10T07:54:48.649Z,84.79
2022-10-10T07:56:10.049Z,78.75
2022-10-10T07:57:31.125Z,86.87
2022-10-10T07:58:52.784Z,77.66
2022-10-10T08:00:14.759Z,84.83
2022-10-10T08:01:36.171Z,67.76
2022-10-10T08:02:57.265Z,80.68
2022-10-10T08:04:18.532Z,84.86
2022-10-10T08:05:42.315Z,83.89
2022-10-10T08:07:04.612Z,90.67
2022-10-10T08:08:26.046Z,100.81
2022-10-10T08:09:48.089Z,89.62
2022-10-10T08:11:09.401Z,90.61
2022-10-10T08:12:31.754Z,87.44
2022-10-10T08:13:53.000Z,89.70
2022-10-10T08:15:14.826Z,85.43
2022-10-10T08:16:37.985Z,94.81
2022-10-10T08:17:59.258Z,101.42
2022-10-10T08:19:20.728Z,80.91
2022-10-10T08:20:43.124Z,47.83
2022-10-10T08:22:04.430Z,29.37
2022-10-10T08:23:25.988Z,31.35
2022-10-10T10:08:29.029Z,12.16
2022-10-10T10:09:56.262Z,9.99
2022-10-10T10:11:25.075Z,8.84
2022-10-10T10:12:46.797Z,9.99
2022-10-10T10:14:23.364Z,8.28
2022-10-10T10:15:55.220Z,10.78
2022-10-10T10:17:17.534Z,8.66
2022-10-10T10:18:43.628Z,6.72
2022-10-10T10:21:22.077Z,12.06
2022-10-10T10:22:46.381Z,10.71
2022-10-10T10:25:37.375Z,9.97
2022-10-10T10:28:31.613Z,5.74
2022-10-10T10:29:55.031Z,12.61
2022-10-10T10:31:31.615Z,9.63
2022-10-10T10:34:32.667Z,13.31
2022-10-10T10:36:22.358Z,10.73
2022-10-10T10:37:47.366Z,9.66
2022-10-10T10:41:17.354Z,5.15
2022-10-10T10:44:22.063Z,9.82
2022-10-10T10:46:02.943Z,9.17
2022-10-10T10:49:24.713Z,11.37
2022-10-10T10:50:57.789Z,10.87
2022-10-10T10:52:29.115Z,6.88
2022-10-10T10:54:21.764Z,11.23
2022-10-10T10:55:49.362Z,22.13
2022-10-10T10:59:16.127Z,11.67
2022-10-10T11:00:33.350Z,10.06
2022-10-10T11:05:24.896Z,8.87
2022-10-10T11:06:21.481Z,9.11
2022-10-10T11:09:50.471Z,11.94
2022-10-10T11:11:18.548Z,11.12
2022-10-10T11:12:55.885Z,8.13
2022-10-10T11:14:37.193Z,7.93
2022-10-10T11:17:41.423Z,6.15
2022-10-10T11:19:12.440Z,5.08
2022-10-10T11:20:48.953Z,5.10
2022-10-10T11:22:15.445Z,8.99
2022-10-10T11:23:40.873Z,9.40
2022-10-10T11:25:24.359Z,10.63
2022-10-10T11:26:47.944Z,8.92
2022-10-10T11:28:18.395Z,6.56
2022-10-10T11:31:30.205Z,6.70
2022-10-10T11:34:31.099Z,7.32
2022-10-10T11:36:03.389Z,6.47
2022-10-10T11:37:27.583Z,14.57
2022-10-10T11:39:04.589Z,7.91
2022-10-10T11:40:38.569Z,7.43
2022-10-10T11:42:18.135Z,4.33
2022-10-10T11:43:54.467Z,4.81
2022-10-10T11:45:19.516Z,4.41
2022-10-10T11:46:50.610Z,8.14
2022-10-10T11:49:54.876Z,8.05
2022-10-10T11:53:15.263Z,4.60
2022-10-10T11:56:23.362Z,4.81
2022-10-10T11:57:51.352Z,5.95
2022-10-10T11:59:22.403Z,4.42
2022-10-10T12:00:47.640Z,4.79
2022-10-10T12:02:23.310Z,3.08
2022-10-10T12:03:44.361Z,4.71
2022-10-10T12:07:23.275Z,4.34
2022-10-10T12:08:53.680Z,7.08
2022-10-10T12:10:21.332Z,5.38
2022-10-10T12:12:59.093Z,6.44
2022-10-10T12:14:20.947Z,11.44
2022-10-10T12:15:49.229Z,6.06
2022-10-10T12:18:30.182Z,5.19
2022-10-10T12:19:51.854Z,4.12
2022-10-10T12:21:15.089Z,5.36
2022-10-10T12:22:36.525Z,2.88
2022-10-10T12:24:12.408Z,5.97
2022-10-10T12:25:38.067Z,3.67
2022-10-10T12:28:26.402Z,4.48
2022-10-10T12:29:59.423Z,6.51
2022-10-10T12:31:29.402Z,4.84
2022-10-10T12:32:50.648Z,5.18
2022-10-10T12:34:16.559Z,2.71
2022-10-10T12:35:42.325Z,7.57
2022-10-10T12:37:28.104Z,7.68
2022-10-10T12:39:05.534Z,2.57
2022-10-10T12:40:26.995Z,3.72
2022-10-10T12:43:20.684Z,7.00
2022-10-10T12:44:46.808Z,6.46
2022-10-10T12:46:25.104Z,3.84
2022-10-10T12:49:24.425Z,4.77
2022-10-10T12:51:23.032Z,4.87
2022-10-10T12:53:22.805Z,2.04
2022-10-10T12:55:21.233Z,3.19
2022-10-10T12:56:43.644Z,3.87
2022-10-10T12:58:07.857Z,4.64
2022-10-10T12:59:29.602Z,5.94
2022-10-10T13:00:51.094Z,3.77
2022-10-10T13:13:55.537Z,2.32
2022-10-10T13:16:33.452Z,10.80
2022-10-10T13:17:51.884Z,6.57
2022-10-10T13:19:18.111Z,9.05
2022-10-10T13:20:40.728Z,2.49
2022-10-10T13:22:02.185Z,6.98
2022-10-10T13:23:23.790Z,7.54
2022-10-10T13:24:45.373Z,4.42
2022-10-10T13:26:43.911Z,4.01
2022-10-10T13:28:34.924Z,8.14
2022-10-10T13:29:57.234Z,5.36
2022-10-10T13:31:23.042Z,10.31
2022-10-10T13:32:45.598Z,8.97
2022-10-10T13:34:07.587Z,6.60
2022-10-10T13:35:29.276Z,3.64
2022-10-10T13:38:08.015Z,2.74
2022-10-10T13:39:32.090Z,12.44
2022-10-10T13:40:57.624Z,4.79
2022-10-10T13:42:29.667Z,6.57
2022-10-10T13:43:53.242Z,4.41
2022-10-10T13:45:38.196Z,4.22
2022-10-10T13:47:20.101Z,3.27
2022-10-10T13:48:41.842Z,4.65
2022-10-10T13:53:23.452Z,3.69
2022-10-10T13:54:46.753Z,6.54
2022-10-10T13:56:23.269Z,14.54
2022-10-10T13:57:47.876Z,5.69
2022-10-10T14:00:23.880Z,10.86
2022-10-10T14:01:47.209Z,7.03
2022-10-10T14:03:16.096Z,14.18
2022-10-10T14:04:41.256Z,7.73
2022-10-10T14:06:02.546Z,8.58
2022-10-10T14:07:25.478Z,7.63
2022-10-10T14:08:46.913Z,4.24
2022-10-10T14:10:09.440Z,4.94
2022-10-10T14:11:31.983Z,4.67
2022-10-10T14:14:08.301Z,9.75
2022-10-10T14:15:38.884Z,10.04
2022-10-10T14:17:01.922Z,11.52
2022-10-10T14:18:24.286Z,8.03
2022-10-10T14:19:47.701Z,4.36
2022-10-10T14:21:08.971Z,4.24
2022-10-10T14:22:30.007Z,7.43
2022-10-10T14:23:51.041Z,4.29
2022-10-10T14:25:12.603Z,14.14
2022-10-10T14:27:42.995Z,8.49
2022-10-10T14:29:09.551Z,9.44
2022-10-10T14:30:31.890Z,14.99
2022-10-10T14:31:53.431Z,7.02
2022-10-10T14:33:16.368Z,5.18
2022-10-10T14:34:37.502Z,8.23
2022-10-10T14:38:33.113Z,4.18
2022-10-10T14:39:54.722Z,8.85
2022-10-10T14:41:16.080Z,9.22
2022-10-10T14:42:37.672Z,13.44
2022-10-10T14:43:59.346Z,17.92
2022-10-10T14:45:23.244Z,22.77
2022-10-10T14:46:44.752Z,20.96
2022-10-10T14:48:09.186Z,14.68
2022-10-10T14:49:30.373Z,13.33
2022-10-10T14:50:53.471Z,10.18
2022-10-10T14:52:15.187Z,15.61
2022-10-10T14:53:36.202Z,11.33
2022-10-10T14:54:57.551Z,16.40
2022-10-10T14:56:19.348Z,18.77
2022-10-10T14:57:40.940Z,15.18
2022-10-10T14:59:02.157Z,11.84
2022-10-10T15:00:24.416Z,26.18
2022-10-10T15:01:49.397Z,27.44
2022-10-10T15:03:12.332Z,16.17
2022-10-10T15:04:34.321Z,18.83
2022-10-10T15:07:13.876Z,19.28
2022-10-10T15:08:37.139Z,20.12
2022-10-10T15:11:23.049Z,19.97
2022-10-10T15:12:45.970Z,48.16
2022-10-10T15:14:09.458Z,25.88
2022-10-10T15:15:31.397Z,16.26
2022-10-10T15:16:53.305Z,14.61
2022-10-10T15:18:40.974Z,10.76
2022-10-10T15:19:39.911Z,15.32
2022-10-10T15:22:20.217Z,16.91
2022-10-10T15:23:42.817Z,22.21
2022-10-10T15:25:08.217Z,32.60
2022-10-10T15:26:29.628Z,33.16
2022-10-10T15:27:50.861Z,27.78
2022-10-10T15:29:14.138Z,23.20
2022-10-10T15:30:40.709Z,34.94
2022-10-10T15:32:00.701Z,33.67
2022-10-10T15:33:23.979Z,28.87
2022-10-10T15:36:09.477Z,29.25
2022-10-10T15:37:29.252Z,28.53
2022-10-10T15:40:01.298Z,26.09
2022-10-10T15:41:25.009Z,28.39
2022-10-10T15:42:46.914Z,47.82
2022-10-10T15:44:16.826Z,49.19
2022-10-10T15:45:55.427Z,53.27
2022-10-10T15:47:05.147Z,37.98
2022-10-10T15:48:26.800Z,34.14
2022-10-10T15:49:48.492Z,37.16
2022-10-10T15:51:10.308Z,33.97
2022-10-10T15:52:31.686Z,28.16
2022-10-10T15:54:29.593Z,20.68
2022-10-10T15:56:27.530Z,20.90
2022-10-10T15:57:49.211Z,18.29
2022-10-10T15:59:10.514Z,19.89
2022-10-10T16:00:32.205Z,17.12
2022-10-10T16:01:54.127Z,25.72
2022-10-10T16:03:15.739Z,22.87
2022-10-10T16:04:39.092Z,25.16
2022-10-10T16:06:05.210Z,25.19
2022-10-10T16:07:30.390Z,38.43
2022-10-10T16:08:59.274Z,53.57
2022-10-10T16:10:14.506Z,42.76
2022-10-10T16:11:36.315Z,33.96
2022-10-10T16:12:58.415Z,30.03
2022-10-10T16:14:21.902Z,41.31
2022-10-10T16:15:43.399Z,31.59
2022-10-10T16:17:04.886Z,39.57
2022-10-10T16:18:26.491Z,24.81
2022-10-10T16:19:48.080Z,25.12
2022-10-10T16:21:12.925Z,25.06
2022-10-10T16:22:34.550Z,28.96
2022-10-10T16:23:58.050Z,26.08
2022-10-10T16:25:22.629Z,26.71
2022-10-10T16:26:43.863Z,22.33
2022-10-10T16:28:05.411Z,23.37
2022-10-10T16:29:28.000Z,26.57
2022-10-10T16:30:49.855Z,19.17
2022-10-10T16:32:11.611Z,22.36
2022-10-10T16:33:34.379Z,19.38
2022-10-10T16:34:56.958Z,21.21
2022-10-10T16:36:23.361Z,18.15
2022-10-10T16:37:45.309Z,22.43
2022-10-10T16:39:08.973Z,18.59
2022-10-10T16:40:30.896Z,15.96
2022-10-10T16:41:52.960Z,18.07
2022-10-10T16:43:14.921Z,17.92
2022-10-10T16:44:36.827Z,19.62
2022-10-10T16:46:02.009Z,16.48
2022-10-10T16:47:25.480Z,17.94
2022-10-10T16:48:46.620Z,19.43
2022-10-10T16:50:08.976Z,18.44
2022-10-10T16:51:31.221Z,19.78
2022-10-10T16:52:53.732Z,21.44
2022-10-10T16:55:41.793Z,19.89
2022-10-10T16:57:04.925Z,20.86
2022-10-10T16:58:28.197Z,26.97
2022-10-10T16:59:49.778Z,21.31
2022-10-10T17:02:30.097Z,20.17
2022-10-10T17:03:52.269Z,25.17
2022-10-10T17:05:14.567Z,20.47
2022-10-10T17:06:37.974Z,17.81
2022-10-10T17:08:01.445Z,14.37
2022-10-10T17:09:23.416Z,18.61
2022-10-10T17:10:44.568Z,18.58
2022-10-10T17:12:06.328Z,18.04
2022-10-10T17:13:28.411Z,16.73
2022-10-10T17:14:50.458Z,16.74
2022-10-10T17:16:53.452Z,20.21
2022-10-10T17:17:39.180Z,15.78
2022-10-10T17:19:02.885Z,13.07
2022-10-10T17:20:24.591Z,22.73
2022-10-10T17:21:49.315Z,20.98
2022-10-10T17:23:14.090Z,19.21
2022-10-10T17:24:35.951Z,20.52
2022-10-10T17:26:00.292Z,23.24
2022-10-10T17:27:21.983Z,23.32
2022-10-10T17:28:43.987Z,22.19
2022-10-10T17:30:08.489Z,18.98
2022-10-10T17:31:31.326Z,23.02
2022-10-10T17:32:54.935Z,24.39
2022-10-10T17:34:16.031Z,26.97
2022-10-10T17:36:57.754Z,21.42
2022-10-10T17:39:42.642Z,19.79
2022-10-10T17:41:04.751Z,19.81
2022-10-10T17:42:26.435Z,18.91
2022-10-10T17:43:48.768Z,15.53
2022-10-10T17:45:11.406Z,19.56
2022-10-10T17:46:35.966Z,14.46
2022-10-10T17:47:56.196Z,16.67
2022-10-10T17:49:17.900Z,19.12
2022-10-10T17:50:39.463Z,13.87
2022-10-10T17:52:00.469Z,12.97
2022-10-10T17:53:21.884Z,12.71
2022-10-10T17:54:43.005Z,14.69
2022-10-10T17:56:05.367Z,15.12
2022-10-10T17:57:26.687Z,13.76
2022-10-10T17:58:49.569Z,12.78
2022-10-10T18:00:12.026Z,11.87
2022-10-10T18:01:35.122Z,16.58
2022-10-10T18:02:56.640Z,14.43
2022-10-10T18:04:18.272Z,14.03
2022-10-10T18:05:39.624Z,21.99
2022-10-10T18:07:01.362Z,13.18
2022-10-10T18:08:23.093Z,13.56
2022-10-10T18:09:44.695Z,15.64
2022-10-10T18:11:13.448Z,12.26
2022-10-10T18:12:35.690Z,12.88
2022-10-10T18:13:57.920Z,12.79
2022-10-10T18:15:19.191Z,13.13
2022-10-10T18:16:42.360Z,14.74
2022-10-10T18:18:04.019Z,14.76
2022-10-10T18:19:25.271Z,14.06
2022-10-10T18:20:46.624Z,11.04
2022-10-10T18:22:07.681Z,11.25
2022-10-10T18:23:29.643Z,14.21
2022-10-10T18:24:51.112Z,12.94
2022-10-10T18:27:24.977Z,11.74
2022-10-10T18:28:46.621Z,14.23
2022-10-10T18:30:08.961Z,13.07
2022-10-10T18:31:31.598Z,13.27
2022-10-10T18:32:52.560Z,9.84
2022-10-10T18:34:13.555Z,13.97
2022-10-10T18:35:38.583Z,10.53
2022-10-10T18:37:01.190Z,13.84
2022-10-10T18:38:22.396Z,11.05
2022-10-10T18:39:43.360Z,11.64
2022-10-10T18:41:07.309Z,10.90
2022-10-10T18:42:28.492Z,12.57
2022-10-10T18:43:51.253Z,14.25
2022-10-10T18:45:13.046Z,13.76
2022-10-10T18:46:34.195Z,11.25
2022-10-10T18:47:55.491Z,12.05
2022-10-10T18:49:16.666Z,12.03
2022-10-10T18:50:38.286Z,12.36
2022-10-10T18:51:59.487Z,11.03
2022-10-10T18:53:20.571Z,11.70
2022-10-10T18:57:09.350Z,9.84
2022-10-10T18:58:31.642Z,13.23
2022-10-10T18:59:53.913Z,11.06
2022-10-10T19:01:15.048Z,12.11
2022-10-10T19:02:36.352Z,12.89
2022-10-10T19:03:58.216Z,12.48
2022-10-10T19:05:19.319Z,10.25
2022-10-10T19:06:40.645Z,11.39
2022-10-10T19:08:02.171Z,13.40
2022-10-10T19:09:23.450Z,12.47
2022-10-10T19:10:45.535Z,12.07
2022-10-10T19:12:06.793Z,10.32
2022-10-10T19:13:29.154Z,9.57
2022-10-10T19:14:50.582Z,14.33
2022-10-10T19:16:12.224Z,20.11
2022-10-10T19:17:33.888Z,19.74
2022-10-10T19:18:58.921Z,16.17
2022-10-10T19:20:23.710Z,16.16
2022-10-10T19:21:45.564Z,11.41
2022-10-10T19:23:06.583Z,13.62
2022-10-10T19:24:28.130Z,8.13
2022-10-10T19:25:49.247Z,8.74
2022-10-10T19:27:10.567Z,10.52
2022-10-10T19:28:31.900Z,9.31
2022-10-10T19:29:53.224Z,7.83
2022-10-10T19:31:16.126Z,9.62
2022-10-10T19:32:37.148Z,10.25
2022-10-10T19:33:59.027Z,8.23
2022-10-10T19:35:20.300Z,11.97
2022-10-10T19:36:42.387Z,8.90
2022-10-10T19:44:57.032Z,6.48
2022-10-10T19:46:20.106Z,11.81
2022-10-10T19:47:42.444Z,10.27
2022-10-10T19:49:03.784Z,8.27
2022-10-10T19:50:25.025Z,8.83
2022-10-10T19:51:46.722Z,9.29
2022-10-10T19:53:08.120Z,7.12
2022-10-10T19:54:29.245Z,12.64
2022-10-10T19:55:58.934Z,8.41
2022-10-10T19:57:20.060Z,7.37
2022-10-10T19:59:51.725Z,7.72
2022-10-10T20:01:14.913Z,7.61
2022-10-10T20:02:36.272Z,6.96
2022-10-10T20:03:57.886Z,6.88
2022-10-10T20:05:19.324Z,8.61
2022-10-10T20:06:41.002Z,6.06
2022-10-10T20:08:02.688Z,7.42
2022-10-10T20:09:23.727Z,7.64
2022-10-10T20:10:45.417Z,8.31
2022-10-10T20:12:07.026Z,7.58
2022-10-10T20:13:28.385Z,7.33
2022-10-10T20:14:49.929Z,8.84
2022-10-10T20:16:11.672Z,7.77
2022-10-10T20:17:33.285Z,11.60
2022-10-10T20:18:55.598Z,15.31
2022-10-10T20:20:16.739Z,14.53
2022-10-10T20:21:38.088Z,15.52
2022-10-10T20:23:00.829Z,13.21
2022-10-10T20:24:22.671Z,15.57
2022-10-10T20:25:44.382Z,10.44
2022-10-10T20:27:05.846Z,11.01
2022-10-10T20:28:27.029Z,11.37
2022-10-10T20:29:48.506Z,17.79
2022-10-10T20:31:17.752Z,15.36
2022-10-10T20:32:39.163Z,15.06
2022-10-10T20:34:01.326Z,11.54
2022-10-10T20:35:22.774Z,11.47
2022-10-10T20:36:43.826Z,8.23
2022-10-10T20:38:04.969Z,8.11
2022-10-10T20:39:26.684Z,7.32
2022-10-10T20:40:47.869Z,8.82
2022-10-10T20:42:09.340Z,7.03
2022-10-10T20:43:30.893Z,7.33
2022-10-10T20:44:51.987Z,13.66
2022-10-10T20:46:13.895Z,11.93
2022-10-10T20:47:35.148Z,15.38
2022-10-10T20:48:57.515Z,14.21
2022-10-10T20:50:18.582Z,25.46
2022-10-10T20:51:39.823Z,15.84
2022-10-10T20:53:01.402Z,21.17
2022-10-10T20:54:23.763Z,18.27
2022-10-10T20:55:45.107Z,18.70
2022-10-10T20:57:06.695Z,14.43
2022-10-10T20:58:28.320Z,12.13
2022-10-10T20:59:49.525Z,11.51
2022-10-10T21:01:15.066Z,11.99
2022-10-10T21:02:36.160Z,14.56
2022-10-10T21:03:57.138Z,10.34
2022-10-10T21:05:18.099Z,12.81
2022-10-10T21:06:39.070Z,8.45
2022-10-10T21:08:00.009Z,10.72
2022-10-10T21:09:20.935Z,8.43
2022-10-10T21:10:42.280Z,8.54
2022-10-10T21:12:04.018Z,11.59
2022-10-10T21:13:25.385Z,9.09
2022-10-10T21:14:46.633Z,8.45
2022-10-10T21:16:10.731Z,7.21
2022-10-10T21:17:31.943Z,8.60
2022-10-10T21:18:57.516Z,7.83
2022-10-10T21:20:16.522Z,10.15
2022-10-10T21:21:37.901Z,11.05
2022-10-10T21:22:58.897Z,10.52
2022-10-10T21:24:19.895Z,9.84
2022-10-10T21:25:41.313Z,12.43
2022-10-10T21:27:02.790Z,9.63
2022-10-10T21:28:24.196Z,15.43
2022-10-10T21:29:45.833Z,11.26
2022-10-10T21:31:07.252Z,11.47
2022-10-10T21:32:28.710Z,13.35
2022-10-10T21:33:50.435Z,11.64
2022-10-10T21:35:11.399Z,9.31
2022-10-10T21:36:32.951Z,10.03
2022-10-10T21:37:54.138Z,9.47
2022-10-10T21:39:15.550Z,9.33
2022-10-10T21:40:36.531Z,12.06
2022-10-10T21:41:57.858Z,9.89
2022-10-10T21:43:18.811Z,7.42
2022-10-10T21:44:41.322Z,7.83
2022-10-10T21:46:07.441Z,11.75
2022-10-10T21:47:28.661Z,8.45
2022-10-10T21:48:50.794Z,9.44
2022-10-10T21:50:11.892Z,7.57
2022-10-10T21:52:48.876Z,7.11
2022-10-10T21:54:10.720Z,8.95
2022-10-10T21:55:32.786Z,11.32
2022-10-10T21:56:55.353Z,8.64
2022-10-10T21:58:16.814Z,10.64
2022-10-10T21:59:38.232Z,12.82
2022-10-10T22:01:02.205Z,9.66
2022-10-10T22:02:23.419Z,9.32
2022-10-10T22:03:46.022Z,10.88
2022-10-10T22:05:08.245Z,10.57
2022-10-10T22:06:29.488Z,8.77
2022-10-10T22:07:51.089Z,8.28
2022-10-10T22:09:12.653Z,8.38
2022-10-10T22:10:34.778Z,8.77
2022-10-10T22:11:56.658Z,9.96
2022-10-10T22:13:18.064Z,7.23
2022-10-10T22:14:39.583Z,6.95
2022-10-10T22:16:01.120Z,7.70
2022-10-10T22:17:22.393Z,8.42
2022-10-10T22:18:43.502Z,7.87
2022-10-10T22:20:05.586Z,8.26
2022-10-10T22:21:30.504Z,7.62
2022-10-10T22:22:50.113Z,8.99
2022-10-10T22:24:11.043Z,9.19
2022-10-10T22:25:32.487Z,6.51
2022-10-10T22:26:53.880Z,6.17
2022-10-10T22:28:15.447Z,6.16
2022-10-10T22:29:36.685Z,6.56
2022-10-10T22:31:03.898Z,7.42
2022-10-10T22:32:25.015Z,9.27
2022-10-10T22:33:45.974Z,16.18
2022-10-10T22:35:07.929Z,14.45
2022-10-10T22:36:28.918Z,11.11
2022-10-10T22:37:50.188Z,20.21
2022-10-10T22:39:11.254Z,7.14
2022-10-10T22:40:32.306Z,28.36
2022-10-10T22:41:53.705Z,11.83
2022-10-10T22:43:14.814Z,17.89
2022-10-10T22:44:36.285Z,28.35
2022-10-10T22:46:00.129Z,14.54
2022-10-10T22:47:21.411Z,19.71
2022-10-10T22:48:42.433Z,16.97
2022-10-10T22:50:06.055Z,46.07
2022-10-10T22:51:27.315Z,17.90
2022-10-10T22:52:48.753Z,16.31
2022-10-10T22:54:12.206Z,28.03
2022-10-10T22:56:54.691Z,26.54
2022-10-10T22:58:15.629Z,16.09
2022-10-10T22:59:37.135Z,13.49
2022-10-10T23:01:05.314Z,11.73
2022-10-10T23:02:26.530Z,9.54
2022-10-10T23:03:47.544Z,10.75
2022-10-10T23:05:08.558Z,9.39
2022-10-10T23:06:29.535Z,12.86
2022-10-10T23:07:50.557Z,9.73
2022-10-10T23:09:11.592Z,14.64
2022-10-10T23:10:32.865Z,12.07
2022-10-10T23:11:54.330Z,11.58
2022-10-10T23:13:15.788Z,10.22
2022-10-10T23:14:37.481Z,9.52
2022-10-10T23:15:58.715Z,8.10
2022-10-10T23:17:20.188Z,8.42
2022-10-10T23:18:41.135Z,6.78
2022-10-10T23:20:02.214Z,6.39
2022-10-10T23:21:23.611Z,12.06
2022-10-10T23:22:44.895Z,10.51
2022-10-10T23:24:06.643Z,10.62
2022-10-10T23:25:27.879Z,6.47
2022-10-10T23:26:48.806Z,10.13
2022-10-10T23:28:10.390Z,7.26
2022-10-10T23:29:31.763Z,6.38
2022-10-10T23:30:55.049Z,8.37
2022-10-10T23:32:16.254Z,5.56
2022-10-10T23:33:37.937Z,7.87
2022-10-10T23:34:58.962Z,5.42
2022-10-10T23:36:19.914Z,6.78
2022-10-10T23:37:41.178Z,8.39
2022-10-10T23:39:06.453Z,5.34
2022-10-10T23:40:25.555Z,6.89
2022-10-10T23:41:46.567Z,7.41
2022-10-10T23:43:07.972Z,5.92
2022-10-10T23:44:28.892Z,6.99
2022-10-10T23:45:50.831Z,5.43
2022-10-10T23:47:11.879Z,5.74
2022-10-10T23:48:33.348Z,6.76
2022-10-10T23:49:54.236Z,6.20
2022-10-10T23:51:15.694Z,7.29
2022-10-10T23:52:37.487Z,6.90
2022-10-10T23:53:58.664Z,5.72
2022-10-10T23:55:20.139Z,5.81
2022-10-10T23:56:41.037Z,6.69
2022-10-10T23:58:01.994Z,6.26
2022-10-10T23:59:22.985Z,7.21
